createdAt,value
2023-05-12T00:00:15.116Z,100.00
2023-05-12T00:02:44.987Z,100.00
2023-05-12T00:05:12.700Z,100.00
2023-05-12T00:07:40.221Z,100.00
2023-05-12T00:10:08.242Z,100.00
2023-05-12T00:12:35.881Z,100.00
2023-05-12T00:15:03.746Z,100.00
2023-05-12T00:17:31.697Z,100.00
2023-05-12T00:19:59.243Z,100.00
2023-05-12T00:22:26.925Z,100.00
2023-05-12T00:24:54.546Z,100.00
2023-05-12T00:27:22.128Z,100.00
2023-05-12T00:29:49.818Z,100.00
2023-05-12T00:32:17.329Z,100.00
2023-05-12T00:34:44.928Z,100.00
2023-05-12T00:37:12.589Z,100.00
2023-05-12T00:39:40.181Z,100.00
2023-05-12T00:42:08.186Z,100.00
2023-05-12T00:44:36.624Z,100.00
2023-05-12T00:47:05.906Z,100.00
2023-05-12T00:49:33.576Z,100.00
2023-05-12T00:52:03.350Z,100.00
2023-05-12T00:54:31.564Z,100.00
2023-05-12T00:56:59.597Z,100.00
2023-05-12T00:59:29.674Z,100.00
2023-05-12T01:01:57.673Z,100.00
2023-05-12T01:04:26.337Z,100.00
2023-05-12T01:06:59.868Z,100.00
2023-05-12T01:09:27.677Z,100.00
2023-05-12T01:11:56.642Z,100.00
2023-05-12T01:14:24.276Z,100.00
2023-05-12T01:16:58.660Z,100.00
2023-05-12T01:19:47.342Z,100.00
2023-05-12T01:22:17.515Z,100.00
2023-05-12T01:24:52.600Z,100.00
2023-05-12T01:27:23.605Z,100.00
2023-05-12T01:29:52.906Z,100.00
2023-05-12T01:32:22.162Z,100.00
2023-05-12T01:34:50.686Z,100.00
2023-05-12T01:37:19.272Z,100.00
2023-05-12T01:39:47.763Z,100.00
2023-05-12T01:42:19.798Z,100.00
2023-05-12T01:44:47.923Z,100.00
2023-05-12T01:47:15.990Z,100.00
2023-05-12T01:49:49.509Z,100.00
2023-05-12T01:52:17.709Z,100.00
2023-05-12T01:54:45.397Z,100.00
2023-05-12T01:57:13.806Z,100.00
2023-05-12T01:59:41.891Z,100.00
2023-05-12T02:02:09.533Z,100.00
2023-05-12T02:04:37.615Z,100.00
2023-05-12T02:07:05.297Z,100.00
2023-05-12T02:09:33.245Z,100.00
2023-05-12T02:12:04.306Z,100.00
2023-05-12T02:14:31.958Z,100.00
2023-05-12T02:16:59.698Z,100.00
2023-05-12T02:19:28.753Z,100.00
2023-05-12T02:21:59.795Z,100.00
2023-05-12T02:24:27.581Z,100.00
2023-05-12T02:26:57.445Z,100.00
2023-05-12T02:29:24.992Z,100.00
2023-05-12T02:31:52.756Z,100.00
2023-05-12T02:34:20.846Z,100.00
2023-05-12T02:36:48.404Z,100.00
2023-05-12T02:39:16.073Z,100.00
2023-05-12T02:41:43.712Z,100.00
2023-05-12T02:44:11.648Z,100.00
2023-05-12T02:46:39.588Z,100.00
2023-05-12T02:49:08.617Z,100.00
2023-05-12T02:51:36.180Z,100.00
2023-05-12T02:54:03.730Z,100.00
2023-05-12T02:56:33.827Z,100.00
2023-05-12T02:59:01.594Z,100.00
2023-05-12T03:01:29.162Z,100.00
2023-05-12T03:03:56.852Z,100.00
2023-05-12T03:06:24.650Z,100.00
2023-05-12T03:08:52.439Z,100.00
2023-05-12T03:11:20.017Z,100.00
2023-05-12T03:13:47.918Z,100.00
2023-05-12T03:16:18.939Z,100.00
2023-05-12T03:18:47.623Z,100.00
2023-05-12T03:21:15.191Z,100.00
2023-05-12T03:23:43.300Z,100.00
2023-05-12T03:26:12.308Z,100.00
2023-05-12T03:28:40.033Z,100.00
2023-05-12T03:31:07.696Z,100.00
2023-05-12T03:33:35.282Z,100.00
2023-05-12T03:36:03.206Z,100.00
2023-05-12T03:38:31.291Z,100.00
2023-05-12T03:41:08.269Z,100.00
2023-05-12T03:43:36.674Z,100.00
2023-05-12T03:46:04.596Z,100.00
2023-05-12T03:48:32.390Z,100.00
2023-05-12T03:51:00.108Z,100.00
2023-05-12T03:53:29.017Z,100.00
2023-05-12T03:55:58.084Z,100.00
2023-05-12T03:58:26.780Z,100.00
2023-05-12T04:00:57.409Z,100.00
2023-05-12T04:03:24.992Z,100.00
2023-05-12T04:06:01.915Z,100.00
2023-05-12T04:08:30.577Z,100.00
2023-05-12T04:11:01.055Z,100.00
2023-05-12T04:13:31.873Z,100.00
2023-05-12T04:16:00.767Z,100.00
2023-05-12T04:18:28.931Z,100.00
2023-05-12T04:20:56.866Z,100.00
2023-05-12T04:23:24.983Z,100.00
2023-05-12T04:25:52.623Z,100.00
2023-05-12T04:28:20.722Z,100.00
2023-05-12T04:30:48.656Z,100.00
2023-05-12T04:33:16.267Z,100.00
2023-05-12T04:35:44.471Z,100.00
2023-05-12T04:38:13.796Z,100.00
2023-05-12T04:40:41.923Z,100.00
2023-05-12T04:43:59.935Z,100.00
2023-05-12T04:45:59.838Z,100.00
2023-05-12T04:48:31.744Z,100.00
2023-05-12T04:51:00.535Z,100.00
2023-05-12T04:53:28.259Z,100.00
2023-05-12T04:55:56.726Z,100.00
2023-05-12T04:58:25.222Z,100.00
2023-05-12T05:00:53.947Z,100.00
2023-05-12T05:03:21.840Z,100.00
2023-05-12T05:05:49.817Z,100.00
2023-05-12T05:08:18.465Z,100.00
2023-05-12T05:10:46.839Z,100.00
2023-05-12T05:13:16.468Z,100.00
2023-05-12T05:15:52.365Z,100.00
2023-05-12T05:18:23.834Z,100.00
2023-05-12T05:20:57.856Z,100.00
2023-05-12T05:23:26.978Z,100.00
2023-05-12T05:25:55.429Z,100.00
2023-05-12T05:28:23.126Z,100.00
2023-05-12T05:30:50.789Z,100.00
2023-05-12T05:33:18.415Z,100.00
2023-05-12T05:35:48.035Z,100.00
2023-05-12T05:38:15.853Z,100.00
2023-05-12T05:40:53.151Z,100.00
2023-05-12T05:43:22.150Z,100.00
2023-05-12T05:45:50.488Z,100.00
2023-05-12T05:48:19.201Z,100.00
2023-05-12T05:50:48.582Z,100.00
2023-05-12T05:53:18.397Z,100.00
2023-05-12T05:55:48.793Z,100.00
2023-05-12T05:58:19.338Z,100.00
2023-05-12T06:00:50.560Z,100.00
2023-05-12T06:03:19.302Z,100.00
2023-05-12T06:05:47.325Z,100.00
2023-05-12T06:08:15.239Z,100.00
2023-05-12T06:10:42.782Z,100.00
2023-05-12T06:13:10.751Z,100.00
2023-05-12T06:15:39.071Z,100.00
2023-05-12T06:18:06.822Z,100.00
2023-05-12T06:20:34.530Z,100.00
2023-05-12T06:23:02.669Z,100.00
2023-05-12T06:25:30.369Z,100.00
2023-05-12T06:27:57.936Z,100.00
2023-05-12T06:30:25.659Z,100.00
2023-05-12T06:32:56.184Z,100.00
2023-05-12T06:35:23.897Z,100.00
2023-05-12T06:37:51.606Z,100.00
2023-05-12T06:40:19.252Z,100.00
2023-05-12T06:42:47.639Z,100.00
2023-05-12T06:45:21.157Z,100.00
2023-05-12T06:47:50.310Z,100.00
2023-05-12T06:50:19.424Z,100.00
2023-05-12T06:52:51.326Z,100.00
2023-05-12T06:55:21.188Z,100.00
2023-05-12T06:57:55.773Z,100.00
2023-05-12T07:00:27.010Z,100.00
2023-05-12T07:02:54.760Z,100.00
2023-05-12T07:05:22.762Z,100.00
2023-05-12T07:07:50.698Z,100.00
2023-05-12T07:10:20.904Z,100.00
2023-05-12T07:12:48.536Z,100.00
2023-05-12T07:15:16.119Z,100.00
2023-05-12T07:17:43.707Z,100.00
2023-05-12T07:20:11.740Z,100.00
2023-05-12T07:22:39.359Z,100.00
2023-05-12T07:25:08.096Z,100.00
2023-05-12T07:27:35.766Z,100.00
2023-05-12T07:30:05.710Z,100.00
2023-05-12T07:32:34.088Z,100.00
2023-05-12T07:35:02.066Z,100.00
2023-05-12T07:37:30.017Z,100.00
2023-05-12T07:39:57.621Z,99.69
2023-05-12T07:42:25.276Z,97.22
2023-05-12T07:44:52.768Z,96.06
2023-05-12T07:47:20.342Z,94.99
2023-05-12T07:49:47.916Z,91.22
2023-05-12T07:52:15.506Z,93.29
2023-05-12T07:54:43.173Z,93.70
2023-05-12T07:57:11.122Z,94.60
2023-05-12T07:59:38.676Z,92.22
2023-05-12T08:02:07.356Z,91.21
2023-05-12T08:04:34.955Z,90.93
2023-05-12T08:07:02.647Z,91.30
2023-05-12T08:09:30.258Z,92.63
2023-05-12T08:11:57.787Z,93.43
2023-05-12T08:14:25.760Z,93.66
2023-05-12T08:16:53.400Z,94.92
2023-05-12T08:19:21.061Z,95.22
2023-05-12T08:21:48.670Z,95.03
2023-05-12T08:24:16.251Z,95.44
2023-05-12T08:26:43.857Z,95.97
2023-05-12T08:29:11.364Z,95.81
2023-05-12T08:31:39.256Z,92.64
2023-05-12T08:34:10.805Z,91.57
2023-05-12T08:36:39.881Z,89.74
2023-05-12T08:39:10.149Z,91.58
2023-05-12T08:42:17.454Z,91.45
2023-05-12T08:44:46.501Z,93.12
2023-05-12T08:47:18.695Z,92.95
2023-05-12T08:50:00.017Z,91.76
2023-05-12T08:52:31.715Z,93.21
2023-05-12T08:55:00.953Z,94.12
2023-05-12T08:57:30.907Z,93.27
2023-05-12T09:00:01.492Z,91.47
2023-05-12T09:02:44.651Z,92.66
2023-05-12T09:05:18.887Z,90.98
2023-05-12T09:07:49.769Z,89.31
2023-05-12T09:10:32.685Z,88.80
2023-05-12T09:13:16.324Z,88.80
2023-05-12T09:15:48.361Z,88.95
2023-05-12T09:18:16.102Z,88.70
2023-05-12T09:20:43.814Z,87.89
2023-05-12T09:23:14.876Z,85.98
2023-05-12T09:25:42.763Z,87.30
2023-05-12T09:28:10.722Z,86.57
2023-05-12T09:30:42.192Z,86.57
2023-05-12T09:33:13.962Z,85.14
2023-05-12T09:35:45.268Z,86.11
2023-05-12T09:38:14.753Z,84.50
2023-05-12T09:40:43.393Z,84.28
2023-05-12T09:43:13.634Z,80.38
2023-05-12T09:45:44.194Z,81.74
2023-05-12T09:48:13.780Z,81.31
2023-05-12T09:50:51.157Z,81.68
2023-05-12T09:53:20.420Z,84.18
2023-05-12T09:55:49.026Z,80.74
2023-05-12T09:58:19.358Z,81.71
2023-05-12T10:03:18.739Z,79.64
2023-05-12T10:05:57.726Z,80.07
2023-05-12T10:08:32.131Z,80.68
2023-05-12T10:11:05.480Z,79.66
2023-05-12T10:13:34.648Z,79.64
2023-05-12T10:16:03.381Z,77.57
2023-05-12T10:18:34.479Z,78.92
2023-05-12T10:21:03.639Z,78.93
2023-05-12T10:23:31.824Z,77.59
2023-05-12T10:26:02.442Z,78.94
2023-05-12T10:28:30.782Z,78.82
2023-05-12T10:30:59.367Z,78.98
2023-05-12T10:33:27.697Z,78.73
2023-05-12T10:35:55.859Z,79.35
2023-05-12T10:38:23.678Z,79.45
2023-05-12T10:41:02.034Z,79.48
2023-05-12T10:43:45.507Z,79.68
2023-05-12T10:46:12.979Z,75.92
2023-05-12T10:49:12.522Z,76.83
2023-05-12T10:51:43.093Z,77.20
2023-05-12T10:54:19.910Z,77.52
2023-05-12T10:56:48.726Z,78.07
2023-05-12T10:59:25.449Z,76.36
2023-05-12T11:02:04.940Z,76.26
2023-05-12T11:04:43.705Z,74.03
2023-05-12T11:07:16.506Z,74.05
2023-05-12T11:09:57.552Z,74.42
2023-05-12T11:12:32.683Z,74.00
2023-05-12T11:15:04.568Z,71.56
2023-05-12T11:17:32.508Z,72.92
2023-05-12T11:20:01.499Z,71.20
2023-05-12T11:22:29.475Z,69.50
2023-05-12T11:24:57.145Z,69.63
2023-05-12T11:27:24.748Z,68.11
2023-05-12T11:30:01.743Z,68.32
2023-05-12T11:32:30.301Z,69.16
2023-05-12T11:35:15.909Z,69.58
2023-05-12T11:37:46.453Z,65.08
2023-05-12T11:40:22.290Z,64.96
2023-05-12T11:42:53.986Z,66.05
2023-05-12T11:45:30.399Z,66.99
2023-05-12T11:48:12.784Z,68.39
2023-05-12T11:50:49.470Z,69.17
2023-05-12T11:53:19.123Z,70.16
2023-05-12T11:55:56.314Z,68.15
2023-05-12T11:58:29.892Z,68.23
2023-05-12T12:01:10.410Z,69.31
2023-05-12T12:03:48.724Z,67.76
2023-05-12T12:06:17.820Z,67.76
2023-05-12T12:09:00.127Z,65.73
2023-05-12T12:11:30.498Z,66.33
2023-05-12T12:13:58.118Z,65.43
2023-05-12T12:16:28.199Z,64.62
2023-05-12T12:18:56.802Z,65.97
2023-05-12T12:21:25.514Z,63.07
2023-05-12T12:23:53.237Z,64.31
2023-05-12T12:26:21.676Z,65.45
2023-05-12T12:28:49.852Z,64.69
2023-05-12T12:31:17.996Z,65.04
2023-05-12T12:33:45.762Z,65.49
2023-05-12T12:36:13.472Z,66.02
2023-05-12T12:38:41.234Z,65.19
2023-05-12T12:41:09.338Z,64.48
2023-05-12T12:43:36.936Z,65.10
2023-05-12T12:46:04.857Z,65.03
2023-05-12T12:48:33.479Z,65.88
2023-05-12T12:51:01.420Z,65.71
2023-05-12T12:53:29.055Z,66.68
2023-05-12T12:55:56.691Z,66.27
2023-05-12T12:58:24.356Z,65.19
2023-05-12T13:00:52.276Z,64.44
2023-05-12T13:03:20.498Z,64.87
2023-05-12T13:05:48.226Z,65.79
2023-05-12T13:08:17.446Z,65.63
2023-05-12T13:10:45.489Z,66.61
2023-05-12T13:13:13.053Z,64.03
2023-05-12T13:15:42.132Z,63.43
2023-05-12T13:18:09.790Z,63.26
2023-05-12T13:20:37.524Z,63.61
2023-05-12T13:23:05.278Z,63.24
2023-05-12T13:25:33.071Z,62.04
2023-05-12T13:28:00.659Z,62.21
2023-05-12T13:30:28.455Z,61.49
2023-05-12T13:32:56.147Z,59.91
2023-05-12T13:35:23.885Z,61.05
2023-05-12T13:37:51.638Z,61.49
2023-05-12T13:40:19.321Z,58.54
2023-05-12T13:42:46.950Z,59.16
2023-05-12T13:45:14.564Z,59.53
2023-05-12T13:47:42.140Z,58.70
2023-05-12T13:50:09.994Z,58.25
2023-05-12T13:52:37.607Z,58.77
2023-05-12T13:55:05.809Z,59.45
2023-05-12T13:57:33.766Z,58.61
2023-05-12T14:00:02.007Z,58.13
2023-05-12T14:02:30.251Z,58.70
2023-05-12T14:04:57.941Z,58.79
2023-05-12T14:07:25.602Z,58.25
2023-05-12T14:09:53.158Z,58.01
2023-05-12T14:12:20.743Z,57.47
2023-05-12T14:14:50.108Z,58.09
2023-05-12T14:17:18.661Z,57.45
2023-05-12T14:19:46.257Z,57.91
2023-05-12T14:22:25.667Z,57.61
2023-05-12T14:24:55.696Z,55.33
2023-05-12T14:27:24.043Z,55.76
2023-05-12T14:29:51.601Z,56.15
2023-05-12T14:32:19.254Z,56.70
2023-05-12T14:34:46.796Z,56.29
2023-05-12T14:37:14.361Z,56.95
2023-05-12T14:39:41.888Z,55.30
2023-05-12T14:42:09.414Z,55.99
2023-05-12T14:44:37.430Z,55.71
2023-05-12T14:47:06.914Z,54.59
2023-05-12T14:49:35.791Z,55.87
2023-05-12T14:52:03.703Z,56.58
2023-05-12T14:54:33.501Z,55.53
2023-05-12T14:57:01.046Z,55.38
2023-05-12T14:59:32.081Z,55.35
2023-05-12T15:01:59.815Z,55.66
2023-05-12T15:04:27.554Z,54.41
2023-05-12T15:06:55.075Z,53.52
2023-05-12T15:09:22.747Z,54.69
2023-05-12T15:11:51.500Z,54.41
2023-05-12T15:14:19.184Z,55.63
2023-05-12T15:16:46.857Z,55.65
2023-05-12T15:19:15.427Z,54.11
2023-05-12T15:21:43.482Z,54.63
2023-05-12T15:24:11.064Z,54.38
2023-05-12T15:26:40.520Z,53.13
2023-05-12T15:29:08.303Z,52.74
2023-05-12T15:31:36.003Z,53.81
2023-05-12T15:34:03.841Z,52.25
2023-05-12T15:36:32.285Z,52.40
2023-05-12T15:39:00.128Z,49.08
2023-05-12T15:41:27.792Z,49.87
2023-05-12T15:43:55.335Z,52.33
2023-05-12T15:46:23.309Z,56.42
2023-05-12T15:48:51.175Z,60.10
2023-05-12T15:51:18.759Z,62.63
2023-05-12T15:53:46.305Z,66.41
2023-05-12T15:56:13.843Z,69.05
2023-05-12T15:58:41.423Z,71.56
2023-05-12T16:01:09.035Z,73.25
2023-05-12T16:03:36.721Z,75.16
2023-05-12T16:06:04.983Z,75.95
2023-05-12T16:08:34.095Z,77.39
2023-05-12T16:11:01.731Z,78.18
2023-05-12T16:13:29.306Z,78.72
2023-05-12T16:15:57.062Z,79.84
2023-05-12T16:18:24.642Z,80.00
2023-05-12T16:20:52.277Z,79.80
2023-05-12T16:23:19.904Z,80.61
2023-05-12T16:25:47.480Z,80.40
2023-05-12T16:28:14.994Z,80.10
2023-05-12T16:30:42.719Z,79.61
2023-05-12T16:33:10.380Z,80.21
2023-05-12T16:35:38.270Z,80.93
2023-05-12T16:38:05.794Z,80.93
2023-05-12T16:40:33.287Z,79.71
2023-05-12T16:43:00.814Z,79.58
2023-05-12T16:45:28.456Z,80.31
2023-05-12T16:47:56.104Z,80.77
2023-05-12T16:50:23.655Z,81.56
2023-05-12T16:52:52.117Z,81.33
2023-05-12T16:55:20.088Z,80.47
2023-05-12T16:57:47.729Z,80.24
2023-05-12T17:00:16.124Z,79.28
2023-05-12T17:02:43.835Z,78.40
2023-05-12T17:05:11.534Z,78.58
2023-05-12T17:07:39.093Z,79.32
2023-05-12T17:10:07.459Z,80.20
2023-05-12T17:12:34.968Z,80.94
2023-05-12T17:15:08.181Z,81.28
2023-05-12T17:17:36.336Z,82.29
2023-05-12T17:20:04.415Z,82.70
2023-05-12T17:22:33.563Z,82.90
2023-05-12T17:25:01.324Z,83.15
2023-05-12T17:27:28.991Z,83.72
2023-05-12T17:29:57.566Z,83.15
2023-05-12T17:32:25.915Z,83.29
2023-05-12T17:34:53.510Z,83.96
2023-05-12T17:37:21.125Z,84.35
2023-05-12T17:39:50.404Z,84.16
2023-05-12T17:42:18.551Z,84.37
2023-05-12T17:44:46.219Z,84.43
2023-05-12T17:47:14.192Z,84.43
2023-05-12T17:49:42.408Z,84.41
2023-05-12T17:52:10.192Z,84.83
2023-05-12T17:54:37.716Z,84.75
2023-05-12T17:57:05.756Z,85.21
2023-05-12T17:59:33.348Z,84.87
2023-05-12T18:02:01.261Z,85.29
2023-05-12T18:04:28.845Z,85.67
2023-05-12T18:06:57.203Z,85.65
2023-05-12T18:09:25.213Z,85.82
2023-05-12T18:11:53.502Z,85.79
2023-05-12T18:14:21.812Z,86.55
2023-05-12T18:16:49.357Z,87.28
2023-05-12T18:19:17.395Z,87.15
2023-05-12T18:21:45.021Z,87.83
2023-05-12T18:24:12.613Z,87.93
2023-05-12T18:26:40.707Z,87.98
2023-05-12T18:29:08.262Z,87.86
2023-05-12T18:31:36.417Z,87.80
2023-05-12T18:34:04.006Z,88.14
2023-05-12T18:36:31.554Z,88.39
2023-05-12T18:38:59.157Z,88.42
2023-05-12T18:41:27.721Z,88.64
2023-05-12T18:43:55.617Z,89.60
2023-05-12T18:46:23.184Z,89.61
2023-05-12T18:48:51.032Z,89.41
2023-05-12T18:51:18.593Z,89.37
2023-05-12T18:53:46.410Z,89.81
2023-05-12T18:56:14.220Z,90.36
2023-05-12T18:58:41.888Z,90.27
2023-05-12T19:01:09.543Z,90.42
2023-05-12T19:03:37.310Z,90.58
2023-05-12T19:06:04.979Z,90.68
2023-05-12T19:08:32.630Z,91.00
2023-05-12T19:11:00.254Z,91.07
2023-05-12T19:13:27.758Z,91.18
2023-05-12T19:15:55.315Z,91.45
2023-05-12T19:18:23.251Z,91.40
2023-05-12T19:20:50.873Z,91.48
2023-05-12T19:23:18.451Z,91.49
2023-05-12T19:25:46.054Z,91.60
2023-05-12T19:28:13.678Z,92.04
2023-05-12T19:30:41.328Z,92.14
2023-05-12T19:33:08.985Z,92.42
2023-05-12T19:35:36.706Z,92.61
2023-05-12T19:38:04.362Z,92.71
2023-05-12T19:40:32.330Z,93.04
2023-05-12T19:43:00.286Z,93.10
2023-05-12T19:45:28.972Z,93.54
2023-05-12T19:47:57.125Z,93.68
2023-05-12T19:50:24.940Z,93.40
2023-05-12T19:52:52.469Z,93.44
2023-05-12T19:55:20.769Z,93.44
2023-05-12T19:57:48.564Z,93.69
2023-05-12T20:00:16.528Z,93.94
2023-05-12T20:02:44.247Z,94.15
2023-05-12T20:05:14.058Z,94.60
2023-05-12T20:07:41.794Z,95.22
2023-05-12T20:10:09.906Z,95.71
2023-05-12T20:12:37.951Z,96.14
2023-05-12T20:15:06.839Z,96.37
2023-05-12T20:17:34.499Z,96.85
2023-05-12T20:20:04.110Z,96.98
2023-05-12T20:22:31.740Z,96.90
2023-05-12T20:25:04.160Z,96.82
2023-05-12T20:27:32.780Z,96.73
2023-05-12T20:30:00.909Z,96.86
2023-05-12T20:32:28.477Z,96.74
2023-05-12T20:34:56.088Z,96.40
2023-05-12T20:37:23.801Z,96.46
2023-05-12T20:39:51.406Z,96.58
2023-05-12T20:42:18.956Z,96.28
2023-05-12T20:44:46.484Z,96.26
2023-05-12T20:47:14.190Z,96.15
2023-05-12T20:49:42.176Z,96.11
2023-05-12T20:52:09.713Z,95.97
2023-05-12T20:54:37.296Z,95.61
2023-05-12T20:57:04.949Z,95.63
2023-05-12T20:59:32.589Z,95.19
2023-05-12T21:02:00.203Z,94.88
2023-05-12T21:04:27.739Z,94.97
2023-05-12T21:06:55.256Z,94.88
2023-05-12T21:09:22.866Z,94.89
2023-05-12T21:11:50.509Z,94.48
2023-05-12T21:14:18.118Z,94.13
2023-05-12T21:16:45.741Z,93.67
2023-05-12T21:19:13.395Z,93.65
2023-05-12T21:21:41.116Z,93.33
2023-05-12T21:24:08.746Z,92.98
2023-05-12T21:26:36.338Z,92.72
2023-05-12T21:29:03.987Z,92.54
2023-05-12T21:31:31.893Z,92.40
2023-05-12T21:33:59.448Z,92.64
2023-05-12T21:36:26.998Z,92.32
2023-05-12T21:38:54.664Z,92.15
2023-05-12T21:41:22.376Z,92.51
2023-05-12T21:43:49.923Z,92.46
2023-05-12T21:46:17.485Z,92.34
2023-05-12T21:48:45.159Z,92.46
2023-05-12T21:51:12.985Z,92.65
2023-05-12T21:53:40.518Z,92.68
2023-05-12T21:56:08.061Z,92.58
2023-05-12T21:58:36.972Z,92.92
2023-05-12T22:01:04.643Z,92.67
2023-05-12T22:03:32.934Z,93.01
2023-05-12T22:06:00.658Z,92.75
2023-05-12T22:08:28.292Z,92.64
2023-05-12T22:10:56.450Z,93.00
2023-05-12T22:13:23.961Z,92.88
2023-05-12T22:15:51.644Z,92.77
2023-05-12T22:18:19.558Z,92.88
2023-05-12T22:20:47.069Z,93.24
2023-05-12T22:23:14.716Z,92.64
2023-05-12T22:25:42.258Z,92.80
2023-05-12T22:28:09.819Z,93.22
2023-05-12T22:30:37.565Z,93.46
2023-05-12T22:33:05.315Z,93.20
2023-05-12T22:35:32.888Z,93.64
2023-05-12T22:38:00.384Z,93.73
2023-05-12T22:40:27.951Z,93.80
2023-05-12T22:42:55.552Z,93.95
2023-05-12T22:45:23.062Z,93.92
2023-05-12T22:47:50.661Z,94.25
2023-05-12T22:50:18.788Z,93.91
2023-05-12T22:52:46.705Z,93.95
2023-05-12T22:55:14.353Z,93.77
2023-05-12T22:57:43.726Z,93.81
2023-05-12T23:00:12.180Z,93.70
2023-05-12T23:02:39.893Z,93.49
2023-05-12T23:05:07.923Z,92.94
2023-05-12T23:07:36.141Z,92.45
2023-05-12T23:10:04.092Z,92.11
2023-05-12T23:12:31.808Z,91.66
2023-05-12T23:14:59.351Z,90.66
2023-05-12T23:17:26.935Z,90.28
2023-05-12T23:19:54.565Z,89.54
2023-05-12T23:22:22.126Z,89.50
2023-05-12T23:24:51.323Z,89.06
2023-05-12T23:27:19.404Z,88.15
2023-05-12T23:29:47.032Z,87.67
2023-05-12T23:32:14.745Z,86.78
2023-05-12T23:34:42.888Z,86.67
2023-05-12T23:37:10.519Z,85.95
2023-05-12T23:39:38.121Z,86.18
2023-05-12T23:42:06.122Z,85.60
2023-05-12T23:44:33.715Z,85.60
2023-05-12T23:47:01.256Z,85.46
2023-05-12T23:49:29.163Z,85.28
2023-05-12T23:51:57.556Z,85.00
2023-05-12T23:54:28.854Z,85.15
2023-05-12T23:56:58.543Z,85.28
2023-05-12T23:59:26.259Z,85.01
